Time;durP1;ratioP1;P1;durP2;ratioP2;P2;SDS_P1;SDS_P2;PMS_P1;PMS_P2;Temp;Humidity;BMP_temperature;BMP_pressure;BME280_temperature;BME280_humidity;BME280_pressure;Samples;Min_cycle;Max_cycle;Signal;HPM_P1;HPM_P2
2024/03/04 00:02:12;;;;;;;13.60;8.37;;;7.30;99.90;;;;;;5011539;28;20462;-74
2024/03/04 00:04:57;;;;;;;14.83;8.30;;;7.20;99.90;;;;;;5009155;28;20552;-74
2024/03/04 00:07:43;;;;;;;13.57;8.57;;;7.10;99.90;;;;;;5008684;28;20414;-74
2024/03/04 00:10:29;;;;;;;11.60;8.10;;;7.00;99.90;;;;;;5008764;28;20454;-75
2024/03/04 00:13:15;;;;;;;16.50;9.23;;;7.00;99.90;;;;;;5007808;28;20819;-75
2024/03/04 00:16:02;;;;;;;10.83;7.80;;;7.00;99.90;;;;;;5009599;28;20804;-75
2024/03/04 00:18:49;;;;;;;12.63;8.10;;;7.00;99.90;;;;;;5010294;28;20551;-75
2024/03/04 00:21:34;;;;;;;13.30;9.35;;;7.00;99.90;;;;;;5008738;28;20463;-75
2024/03/04 00:24:20;;;;;;;13.03;8.40;;;6.90;99.90;;;;;;5007333;28;20338;-73
2024/03/04 00:27:06;;;;;;;14.40;9.17;;;6.90;99.90;;;;;;5009190;28;20439;-71
2024/03/04 00:29:52;;;;;;;10.43;7.40;;;6.90;99.90;;;;;;5008207;28;20435;-73
2024/03/04 00:32:38;;;;;;;11.17;8.30;;;6.90;99.90;;;;;;5009090;28;20453;-74
2024/03/04 00:35:25;;;;;;;12.07;7.90;;;6.80;99.90;;;;;;5007270;28;20711;-74
2024/03/04 00:38:11;;;;;;;11.67;8.93;;;6.90;99.90;;;;;;5007873;28;20423;-75
2024/03/04 00:40:56;;;;;;;9.23;7.33;;;6.90;99.90;;;;;;5009502;28;20922;-74
2024/03/04 00:43:42;;;;;;;14.50;7.93;;;6.80;99.90;;;;;;5010125;28;20511;-74
2024/03/04 00:46:28;;;;;;;14.23;9.37;;;6.80;99.90;;;;;;5008095;28;20495;-75
2024/03/04 00:49:15;;;;;;;12.57;8.70;;;6.70;99.90;;;;;;5009874;28;20811;-74
2024/03/04 00:52:02;;;;;;;12.17;8.77;;;6.70;99.90;;;;;;5006372;28;20463;-73
2024/03/04 00:54:47;;;;;;;12.90;9.03;;;6.70;99.90;;;;;;5007562;28;20522;-74
2024/03/04 00:57:33;;;;;;;13.43;9.13;;;6.70;99.90;;;;;;5007819;28;20579;-73
2024/03/04 01:00:19;;;;;;;13.80;9.40;;;6.60;99.90;;;;;;5010841;28;20507;-75
2024/03/04 01:03:05;;;;;;;10.13;7.70;;;6.60;99.90;;;;;;5010374;28;20590;-74
2024/03/04 01:05:51;;;;;;;11.70;7.97;;;6.60;99.90;;;;;;5010769;28;21253;-74
2024/03/04 01:08:38;;;;;;;10.88;8.40;;;6.50;99.90;;;;;;5011053;28;20553;-75
2024/03/04 01:11:23;;;;;;;11.90;8.70;;;6.70;99.90;;;;;;5008719;28;20373;-74
2024/03/04 01:14:09;;;;;;;12.00;8.63;;;6.60;99.90;;;;;;5010536;28;20800;-74
2024/03/04 01:16:55;;;;;;;13.20;8.07;;;6.60;99.90;;;;;;5010603;28;20413;-75
2024/03/04 01:19:45;;;;;;;11.17;7.63;;;6.60;99.90;;;;;;5010966;28;20435;-75
2024/03/04 01:22:30;;;;;;;11.33;7.87;;;6.60;99.90;;;;;;5006293;28;20458;-74
2024/03/04 01:25:18;;;;;;;14.53;8.30;;;6.60;99.90;;;;;;4996726;28;21009;-75
2024/03/04 01:28:03;;;;;;;11.90;8.97;;;6.40;99.90;;;;;;5008741;28;20442;-74
2024/03/04 01:30:50;;;;;;;11.20;8.70;;;6.40;99.90;;;;;;5007235;28;20438;-75
2024/03/04 01:33:36;;;;;;;10.80;7.60;;;6.40;99.90;;;;;;5008903;28;20575;-75
2024/03/04 01:36:22;;;;;;;11.60;8.30;;;6.30;99.90;;;;;;5009476;28;20977;-75
2024/03/04 01:39:08;;;;;;;14.30;7.30;;;6.30;99.90;;;;;;5007600;28;20447;-75
2024/03/04 01:41:55;;;;;;;11.77;7.80;;;6.40;99.90;;;;;;5007814;28;20875;-75
2024/03/04 01:44:41;;;;;;;11.30;7.68;;;6.40;99.90;;;;;;5008492;28;20939;-74
2024/03/04 01:47:27;;;;;;;12.40;8.50;;;6.40;99.90;;;;;;5006578;28;20220;-75
2024/03/04 01:50:13;;;;;;;13.60;8.37;;;6.50;99.90;;;;;;5003196;28;20417;-74
2024/03/04 01:53:02;;;;;;;12.13;8.23;;;6.50;99.90;;;;;;5007223;28;20465;-74
2024/03/04 01:55:54;;;;;;;11.93;8.07;;;6.40;99.90;;;;;;5006024;28;20997;-74
2024/03/04 01:58:48;;;;;;;13.50;8.80;;;6.40;99.90;;;;;;5007912;28;20962;-74
2024/03/04 02:01:33;;;;;;;10.53;7.70;;;6.30;99.90;;;;;;5007510;28;20591;-74
2024/03/04 02:04:20;;;;;;;11.90;8.50;;;6.30;99.90;;;;;;5008988;28;20417;-74
2024/03/04 02:07:05;;;;;;;13.37;9.40;;;6.30;99.90;;;;;;5009068;28;20407;-74
2024/03/04 02:09:51;;;;;;;15.50;8.30;;;6.20;99.90;;;;;;5007634;28;20538;-73
2024/03/04 02:12:38;;;;;;;14.80;8.87;;;6.10;99.90;;;;;;5006290;28;21779;-74
2024/03/04 02:15:25;;;;;;;15.50;10.60;;;6.10;99.90;;;;;;5004561;28;20427;-75
2024/03/04 02:18:12;;;;;;;15.27;10.60;;;6.10;99.90;;;;;;5008625;28;20410;-75
2024/03/04 02:21:02;;;;;;;14.90;9.63;;;6.10;99.90;;;;;;5005731;28;20444;-75
2024/03/04 02:23:49;;;;;;;10.23;7.87;;;6.10;99.90;;;;;;5005978;28;21542;-74
2024/03/04 02:26:35;;;;;;;12.80;9.00;;;6.20;99.90;;;;;;5004080;28;20471;-74
2024/03/04 02:29:21;;;;;;;14.20;8.93;;;6.10;99.90;;;;;;5003766;28;20526;-74
2024/03/04 02:32:07;;;;;;;18.93;11.33;;;6.10;99.90;;;;;;5004209;28;20954;-74
2024/03/04 02:34:54;;;;;;;12.37;9.23;;;6.10;99.90;;;;;;5006600;28;20451;-74
2024/03/04 02:37:40;;;;;;;15.03;10.40;;;6.10;99.90;;;;;;5005867;28;20942;-74
2024/03/04 02:40:27;;;;;;;14.87;10.53;;;6.00;99.90;;;;;;5010815;28;20488;-74
2024/03/04 02:43:13;;;;;;;16.70;10.77;;;6.00;99.90;;;;;;5007876;28;20590;-74
2024/03/04 02:45:59;;;;;;;16.90;10.57;;;6.00;99.90;;;;;;5007035;28;20534;-74
2024/03/04 02:48:44;;;;;;;14.05;9.93;;;6.00;99.90;;;;;;5006351;28;20436;-74
2024/03/04 02:51:30;;;;;;;14.43;10.63;;;5.90;99.90;;;;;;5004279;28;20612;-74
2024/03/04 02:54:16;;;;;;;15.40;10.70;;;5.90;99.90;;;;;;5006288;28;20443;-74
2024/03/04 02:57:04;;;;;;;15.40;11.77;;;5.80;99.90;;;;;;5006762;28;20915;-75
2024/03/04 02:59:49;;;;;;;13.80;10.33;;;5.90;99.90;;;;;;5007342;28;20963;-73
2024/03/04 03:02:35;;;;;;;22.48;11.05;;;5.80;99.90;;;;;;5007135;28;20466;-73
2024/03/04 03:05:21;;;;;;;13.80;10.10;;;5.70;99.90;;;;;;5008152;28;20231;-72
2024/03/04 03:08:07;;;;;;;16.87;11.47;;;5.70;99.90;;;;;;5005620;28;20925;-73
2024/03/04 03:10:52;;;;;;;13.77;10.10;;;5.70;99.90;;;;;;5009158;28;20819;-73
2024/03/04 03:13:40;;;;;;;15.80;11.57;;;5.70;99.90;;;;;;5009083;28;20567;-75
2024/03/04 03:16:25;;;;;;;15.97;11.13;;;5.60;99.90;;;;;;5007046;28;20933;-74
2024/03/04 03:19:21;;;;;;;14.00;10.60;;;5.60;99.90;;;;;;5008286;28;20432;-74
2024/03/04 03:22:07;;;;;;;17.97;12.67;;;5.60;99.90;;;;;;5005297;28;20482;-74
2024/03/04 03:24:53;;;;;;;16.60;11.90;;;5.50;99.90;;;;;;5006315;28;20530;-73
2024/03/04 03:27:39;;;;;;;15.33;11.80;;;5.60;99.90;;;;;;5006627;28;20843;-75
2024/03/04 03:30:27;;;;;;;15.68;11.10;;;5.60;99.90;;;;;;5006883;28;20420;-75
2024/03/04 03:33:13;;;;;;;14.93;11.10;;;5.50;99.90;;;;;;5007738;28;20288;-72
2024/03/04 03:35:58;;;;;;;15.48;10.63;;;5.50;99.90;;;;;;5005796;28;20502;-75
2024/03/04 03:38:46;;;;;;;15.77;11.20;;;5.50;99.90;;;;;;5006580;28;20224;-75
2024/03/04 03:41:32;;;;;;;15.00;11.00;;;5.50;99.90;;;;;;5003885;28;20471;-75
2024/03/04 03:44:19;;;;;;;14.50;10.93;;;5.60;99.90;;;;;;5009707;28;20522;-74
2024/03/04 03:47:06;;;;;;;18.00;12.13;;;5.60;99.90;;;;;;5002216;28;20239;-75
2024/03/04 03:49:52;;;;;;;17.60;10.27;;;5.60;99.90;;;;;;5004262;28;20835;-72
2024/03/04 03:52:37;;;;;;;22.00;10.90;;;5.60;99.90;;;;;;5006191;28;20460;-74
2024/03/04 03:55:23;;;;;;;18.63;11.30;;;5.70;99.90;;;;;;5004039;28;20928;-75
2024/03/04 03:58:09;;;;;;;16.88;11.40;;;5.70;99.90;;;;;;5010736;28;20501;-74
2024/03/04 04:00:55;;;;;;;17.02;10.73;;;5.60;99.90;;;;;;5009931;28;20707;-75
2024/03/04 04:03:42;;;;;;;15.13;10.87;;;5.60;99.90;;;;;;5007953;28;20222;-74
2024/03/04 04:06:27;;;;;;;15.80;12.47;;;5.60;99.90;;;;;;5003499;28;21064;-74
2024/03/04 04:09:13;;;;;;;13.57;10.07;;;5.70;99.90;;;;;;5013117;28;20496;-75
2024/03/04 04:11:59;;;;;;;20.00;13.03;;;5.70;99.90;;;;;;5010677;28;20462;-75
2024/03/04 04:14:45;;;;;;;19.80;11.73;;;5.60;99.90;;;;;;5009794;28;21230;-73
2024/03/04 04:17:31;;;;;;;16.00;11.20;;;5.70;99.90;;;;;;5012488;28;20427;-75
2024/03/04 04:20:18;;;;;;;16.73;11.95;;;5.80;99.90;;;;;;5008601;28;20856;-74
2024/03/04 04:23:04;;;;;;;26.05;12.18;;;5.90;99.90;;;;;;5009858;28;20234;-75
2024/03/04 04:25:50;;;;;;;14.50;11.57;;;6.00;99.90;;;;;;5012704;28;20220;-75
2024/03/04 04:28:36;;;;;;;19.80;13.20;;;6.10;99.90;;;;;;5007727;28;20220;-74
2024/03/04 04:31:23;;;;;;;18.53;13.13;;;6.00;99.90;;;;;;5008860;28;20467;-75
2024/03/04 04:34:09;;;;;;;18.40;13.50;;;6.00;99.90;;;;;;5007710;28;20964;-74
2024/03/04 04:36:57;;;;;;;17.88;12.32;;;6.10;99.90;;;;;;5008193;28;20632;-75
2024/03/04 04:39:42;;;;;;;17.10;12.77;;;6.10;99.90;;;;;;5009519;28;20248;-75
2024/03/04 04:42:28;;;;;;;15.63;11.17;;;6.20;99.90;;;;;;5009821;28;21084;-75
2024/03/04 04:45:14;;;;;;;19.70;12.03;;;6.20;99.90;;;;;;5008486;28;20508;-74
2024/03/04 04:48:00;;;;;;;16.37;11.73;;;6.30;99.90;;;;;;5007657;28;20456;-76
2024/03/04 04:50:45;;;;;;;15.93;12.40;;;6.30;99.90;;;;;;5008847;28;20503;-75
2024/03/04 04:53:33;;;;;;;17.60;13.00;;;6.40;99.90;;;;;;5009886;28;20569;-72
2024/03/04 04:56:18;;;;;;;17.13;11.23;;;6.30;99.90;;;;;;5008186;28;20496;-75
2024/03/04 04:59:04;;;;;;;15.40;11.32;;;6.20;99.90;;;;;;5009948;28;20790;-75
2024/03/04 05:01:50;;;;;;;19.47;12.67;;;6.20;99.90;;;;;;5006308;28;20232;-75
2024/03/04 05:04:35;;;;;;;17.17;12.07;;;6.20;99.90;;;;;;5010456;28;20498;-73
2024/03/04 05:07:21;;;;;;;18.53;11.70;;;6.40;99.90;;;;;;5009260;28;21385;-75
2024/03/04 05:10:09;;;;;;;19.07;12.50;;;6.40;99.90;;;;;;5009205;28;20443;-75
2024/03/04 05:12:55;;;;;;;17.53;11.17;;;6.40;99.90;;;;;;5008828;28;20536;-75
2024/03/04 05:15:41;;;;;;;21.43;12.10;;;6.50;99.90;;;;;;5008807;28;20463;-75
2024/03/04 05:18:27;;;;;;;16.43;10.50;;;6.60;99.90;;;;;;5003764;28;21000;-74
2024/03/04 05:21:12;;;;;;;18.80;12.47;;;6.50;99.90;;;;;;5010389;28;20436;-75
2024/03/04 05:23:58;;;;;;;16.40;12.40;;;6.60;99.90;;;;;;5009003;28;20447;-73
2024/03/04 05:26:45;;;;;;;18.33;11.30;;;6.70;99.90;;;;;;5007850;28;20520;-75
2024/03/04 05:29:30;;;;;;;18.53;10.83;;;6.80;99.90;;;;;;5008732;28;20478;-74
2024/03/04 05:32:16;;;;;;;18.10;11.30;;;6.80;99.90;;;;;;5008776;28;20449;-73
2024/03/04 05:35:04;;;;;;;15.03;10.60;;;6.80;99.90;;;;;;5008779;28;20439;-74
2024/03/04 05:37:49;;;;;;;20.88;12.45;;;6.90;99.90;;;;;;5007937;28;20541;-75
2024/03/04 05:40:35;;;;;;;15.80;10.53;;;7.00;99.90;;;;;;5008283;28;20211;-75
2024/03/04 05:43:22;;;;;;;15.53;11.53;;;7.00;99.90;;;;;;5008963;28;21049;-74
2024/03/04 05:46:07;;;;;;;17.40;11.27;;;7.00;99.90;;;;;;5008512;28;20455;-74
2024/03/04 05:48:53;;;;;;;16.53;11.53;;;7.10;99.90;;;;;;5006160;28;20451;-75
2024/03/04 05:51:41;;;;;;;16.10;11.50;;;7.10;99.90;;;;;;5005707;28;20519;-75
2024/03/04 05:54:26;;;;;;;21.03;15.13;;;7.00;99.90;;;;;;5008957;28;20439;-75
2024/03/04 05:57:12;;;;;;;18.13;12.80;;;7.00;99.90;;;;;;5008843;28;20494;-75
2024/03/04 05:59:59;;;;;;;20.60;11.30;;;7.00;99.90;;;;;;5007236;28;20447;-74
2024/03/04 06:02:45;;;;;;;17.87;12.57;;;7.10;99.90;;;;;;5008459;28;20464;-74
2024/03/04 06:05:31;;;;;;;15.90;12.80;;;7.20;99.90;;;;;;5006901;28;20427;-72
2024/03/04 06:08:17;;;;;;;20.60;12.90;;;7.20;99.90;;;;;;5008286;28;20809;-74
2024/03/04 06:11:03;;;;;;;16.40;12.67;;;7.20;99.90;;;;;;5002772;28;20809;-74
2024/03/04 06:13:49;;;;;;;16.60;12.37;;;7.20;99.90;;;;;;5000508;28;20575;-74
2024/03/04 06:16:36;;;;;;;21.03;12.73;;;7.30;99.90;;;;;;5000194;28;20450;-74
2024/03/04 06:19:22;;;;;;;15.80;12.07;;;7.30;99.90;;;;;;5000682;28;20978;-75
2024/03/04 06:22:07;;;;;;;17.70;12.60;;;7.40;99.90;;;;;;5005592;28;20464;-72
2024/03/04 06:24:53;;;;;;;17.77;11.97;;;7.40;99.90;;;;;;5008355;28;20533;-72
2024/03/04 06:27:39;;;;;;;18.23;12.97;;;7.50;99.90;;;;;;5007873;28;20550;-74
2024/03/04 06:30:24;;;;;;;20.00;11.70;;;7.50;99.90;;;;;;5006849;28;20408;-74
2024/03/04 06:33:12;;;;;;;17.27;13.27;;;7.40;99.90;;;;;;5005793;28;20578;-74
2024/03/04 06:35:57;;;;;;;17.23;13.57;;;7.50;99.90;;;;;;5007517;28;20427;-73
2024/03/04 06:38:43;;;;;;;21.10;15.47;;;7.50;99.90;;;;;;5007777;28;20427;-75
2024/03/04 06:41:29;;;;;;;18.73;11.50;;;7.60;99.90;;;;;;5010257;28;20467;-72
2024/03/04 06:44:15;;;;;;;24.63;14.30;;;7.60;99.90;;;;;;5006956;28;20535;-74
2024/03/04 06:47:01;;;;;;;20.27;13.83;;;7.60;99.90;;;;;;5010735;28;20526;-75
2024/03/04 06:49:48;;;;;;;19.00;11.93;;;7.60;99.90;;;;;;5010020;28;20975;-75
2024/03/04 06:52:34;;;;;;;22.07;13.13;;;7.60;99.90;;;;;;5007887;28;20837;-74
2024/03/04 06:55:20;;;;;;;17.77;12.50;;;7.70;99.90;;;;;;5006619;28;20434;-73
2024/03/04 06:58:06;;;;;;;21.10;13.40;;;7.70;99.90;;;;;;5007210;28;20467;-74
2024/03/04 07:00:52;;;;;;;20.63;12.77;;;7.80;99.90;;;;;;5007913;28;20602;-74
2024/03/04 07:03:38;;;;;;;19.60;13.77;;;7.70;99.90;;;;;;5010186;28;20519;-75
2024/03/04 07:06:25;;;;;;;15.43;12.40;;;7.80;99.90;;;;;;5005468;28;20484;-75
2024/03/04 07:09:10;;;;;;;19.70;13.67;;;7.80;99.90;;;;;;5009375;28;20437;-74
2024/03/04 07:11:56;;;;;;;39.90;21.77;;;7.80;99.90;;;;;;5009839;28;20444;-73
2024/03/04 07:14:42;;;;;;;29.13;17.77;;;7.90;99.90;;;;;;5010509;28;20410;-74
2024/03/04 07:17:27;;;;;;;30.43;18.97;;;7.90;99.90;;;;;;5010564;28;20946;-74
2024/03/04 07:20:13;;;;;;;32.23;21.07;;;7.90;99.90;;;;;;5012342;28;20439;-75
2024/03/04 07:23:00;;;;;;;26.40;18.60;;;7.90;99.90;;;;;;5013686;28;20986;-74
2024/03/04 07:25:46;;;;;;;36.40;22.07;;;8.00;99.90;;;;;;5008639;28;20436;-74
2024/03/04 07:28:33;;;;;;;31.63;17.17;;;8.00;99.90;;;;;;5009190;28;20468;-75
2024/03/04 07:31:19;;;;;;;29.03;18.30;;;8.10;99.90;;;;;;5007708;28;20548;-73
2024/03/04 07:34:05;;;;;;;33.30;20.57;;;8.20;99.90;;;;;;5010986;28;20431;-73
2024/03/04 07:36:50;;;;;;;30.77;18.27;;;8.20;99.90;;;;;;5009672;28;20430;-75
2024/03/04 07:39:37;;;;;;;66.70;34.33;;;8.30;99.90;;;;;;5008392;28;20454;-75
2024/03/04 07:42:24;;;;;;;40.50;22.97;;;8.30;99.90;;;;;;5009299;28;21050;-74
2024/03/04 07:45:11;;;;;;;47.23;24.20;;;8.30;99.90;;;;;;5011129;28;20448;-74
2024/03/04 07:47:57;;;;;;;61.50;32.10;;;8.40;99.90;;;;;;5010580;28;21175;-74
2024/03/04 07:50:43;;;;;;;60.37;31.07;;;8.50;99.90;;;;;;5009378;28;20845;-71
2024/03/04 07:53:29;;;;;;;50.63;24.80;;;8.60;99.90;;;;;;5012467;28;20427;-74
2024/03/04 07:56:15;;;;;;;46.13;25.43;;;8.70;99.90;;;;;;5007486;28;20435;-75
2024/03/04 07:59:02;;;;;;;72.70;34.93;;;8.80;99.90;;;;;;5010305;28;20451;-75
2024/03/04 08:01:49;;;;;;;69.23;36.37;;;8.90;99.90;;;;;;5011350;28;20841;-74
2024/03/04 08:04:35;;;;;;;78.70;37.80;;;9.00;99.90;;;;;;5010361;28;20586;-74
2024/03/04 08:07:20;;;;;;;63.13;33.60;;;9.00;99.90;;;;;;5009729;28;20502;-75
2024/03/04 08:10:08;;;;;;;77.40;37.47;;;9.00;99.90;;;;;;5007164;28;20480;-72
2024/03/04 08:12:55;;;;;;;68.60;33.83;;;9.10;99.90;;;;;;5008953;28;20559;-75
2024/03/04 08:15:41;;;;;;;60.80;34.37;;;9.10;99.90;;;;;;5012062;28;20436;-74
2024/03/04 08:18:30;;;;;;;71.03;36.00;;;9.20;99.90;;;;;;5020126;28;20483;-72
2024/03/04 08:21:16;;;;;;;62.43;34.43;;;9.20;99.90;;;;;;5025128;28;21085;-74
2024/03/04 08:24:01;;;;;;;61.00;30.57;;;9.30;99.90;;;;;;5028807;28;20485;-72
2024/03/04 08:26:47;;;;;;;51.13;30.50;;;9.30;99.90;;;;;;5024428;28;20522;-72
2024/03/04 08:29:34;;;;;;;58.23;31.67;;;9.40;99.90;;;;;;5030055;28;20473;-73
2024/03/04 08:32:20;;;;;;;61.97;31.07;;;9.50;99.90;;;;;;5028464;28;20479;-73
2024/03/04 08:35:06;;;;;;;56.33;29.63;;;9.50;99.90;;;;;;5033236;28;20440;-72
2024/03/04 08:37:52;;;;;;;59.40;32.10;;;9.50;99.90;;;;;;5027608;28;20433;-74
2024/03/04 08:40:38;;;;;;;56.67;31.50;;;9.50;99.90;;;;;;5021362;28;20491;-74
2024/03/04 08:43:25;;;;;;;56.80;31.37;;;9.40;99.90;;;;;;5014762;28;20471;-70
2024/03/04 08:46:15;;;;;;;60.23;32.03;;;9.40;99.90;;;;;;5013402;28;21498;-74
2024/03/04 08:49:01;;;;;;;58.17;30.63;;;9.40;99.90;;;;;;5023193;28;20455;-70
2024/03/04 08:51:46;;;;;;;65.83;35.27;;;9.50;99.90;;;;;;5030667;28;20441;-73
2024/03/04 08:54:34;;;;;;;59.63;31.27;;;9.50;99.90;;;;;;5030682;28;20505;-74
2024/03/04 08:57:19;;;;;;;66.20;35.07;;;9.50;99.90;;;;;;5028274;28;20435;-73
2024/03/04 09:00:07;;;;;;;69.20;35.30;;;9.50;99.90;;;;;;5027492;28;20551;-74
2024/03/04 09:02:54;;;;;;;56.20;32.20;;;9.50;99.90;;;;;;5027691;28;20482;-72
2024/03/04 09:05:44;;;;;;;63.87;32.23;;;9.50;99.90;;;;;;5025659;28;20514;-73
2024/03/04 09:08:30;;;;;;;59.20;30.97;;;9.60;99.90;;;;;;5024986;28;20500;-73
2024/03/04 09:11:15;;;;;;;59.33;30.17;;;9.60;99.90;;;;;;5026647;28;20467;-74
2024/03/04 09:14:01;;;;;;;57.03;30.90;;;9.60;99.90;;;;;;5027292;28;20544;-74
2024/03/04 09:16:47;;;;;;;57.60;30.53;;;9.60;99.90;;;;;;5023565;28;20528;-71
2024/03/04 09:19:37;;;;;;;54.70;31.80;;;9.60;99.90;;;;;;5026513;28;20465;-73
2024/03/04 09:22:23;;;;;;;58.10;32.07;;;9.60;99.90;;;;;;5019352;28;20488;-73
2024/03/04 09:25:09;;;;;;;55.27;30.50;;;9.60;99.90;;;;;;5021776;28;20603;-71
2024/03/04 09:27:55;;;;;;;55.33;29.70;;;9.70;99.90;;;;;;5027889;28;20611;-74
2024/03/04 09:30:41;;;;;;;67.77;35.77;;;9.80;99.90;;;;;;5025468;28;20460;-72
2024/03/04 09:33:26;;;;;;;54.30;32.07;;;9.80;99.90;;;;;;5025323;28;20429;-70
2024/03/04 09:36:14;;;;;;;49.60;26.90;;;9.80;99.90;;;;;;5027325;28;20985;-75
2024/03/04 09:38:59;;;;;;;48.17;28.97;;;9.90;99.90;;;;;;5022889;28;20556;-74
2024/03/04 09:41:45;;;;;;;57.33;29.20;;;10.00;99.90;;;;;;5029132;28;20571;-73
2024/03/04 09:44:31;;;;;;;52.47;28.73;;;10.00;99.90;;;;;;5027443;28;20464;-71
2024/03/04 09:47:19;;;;;;;55.57;26.50;;;10.00;99.90;;;;;;5030141;28;20578;-74
2024/03/04 09:50:06;;;;;;;51.50;28.20;;;10.00;99.90;;;;;;5023699;28;20899;-71
2024/03/04 09:52:57;;;;;;;45.20;24.90;;;10.00;99.90;;;;;;5024465;28;20480;-71
2024/03/04 09:55:43;;;;;;;43.60;24.40;;;10.00;99.90;;;;;;5025848;28;20552;-72
2024/03/04 09:58:29;;;;;;;44.90;25.57;;;10.10;99.90;;;;;;5025852;28;20532;-71
2024/03/04 10:01:15;;;;;;;55.33;26.10;;;10.10;99.90;;;;;;5021899;28;20533;-70
2024/03/04 10:04:01;;;;;;;49.27;25.80;;;10.10;99.90;;;;;;5024110;28;20479;-70
2024/03/04 10:06:47;;;;;;;48.83;25.90;;;10.20;99.90;;;;;;5022500;28;20480;-71
2024/03/04 10:09:35;;;;;;;45.20;26.03;;;10.10;99.90;;;;;;5027593;28;20458;-71
2024/03/04 10:12:20;;;;;;;39.37;24.87;;;10.10;99.90;;;;;;5026171;28;20487;-72
2024/03/04 10:15:09;;;;;;;42.53;24.73;;;10.10;99.90;;;;;;5025865;28;20453;-72
2024/03/04 10:17:55;;;;;;;54.30;27.13;;;10.10;99.90;;;;;;5026794;28;20476;-74
2024/03/04 10:20:41;;;;;;;45.07;25.97;;;10.10;99.90;;;;;;5030617;28;20457;-72
2024/03/04 10:23:27;;;;;;;48.03;25.97;;;10.10;99.90;;;;;;5024968;28;20451;-75
2024/03/04 10:26:14;;;;;;;56.30;26.10;;;10.00;99.90;;;;;;5026299;28;20448;-74
2024/03/04 10:29:00;;;;;;;46.93;26.37;;;10.00;99.90;;;;;;5022444;28;20450;-73
2024/03/04 10:31:52;;;;;;;46.53;27.40;;;10.00;99.90;;;;;;5022851;28;20566;-75
2024/03/04 10:34:38;;;;;;;44.10;24.53;;;10.00;99.90;;;;;;5025233;28;20473;-72
2024/03/04 10:37:24;;;;;;;45.23;25.67;;;9.90;99.90;;;;;;5017001;28;20512;-73
2024/03/04 10:40:11;;;;;;;50.10;27.67;;;10.00;99.90;;;;;;5022016;28;20483;-75
2024/03/04 10:43:00;;;;;;;45.00;23.40;;;10.00;99.90;;;;;;5016497;28;20491;-74
2024/03/04 10:45:45;;;;;;;44.30;27.10;;;10.00;99.90;;;;;;5007864;28;20480;-73
2024/03/04 10:48:31;;;;;;;51.57;27.60;;;9.90;99.90;;;;;;5011674;28;20559;-75
2024/03/04 10:51:18;;;;;;;46.27;27.17;;;9.90;99.90;;;;;;5015593;28;20821;-75
2024/03/04 10:54:04;;;;;;;46.53;25.40;;;9.90;99.90;;;;;;5009396;28;20567;-73
2024/03/04 10:56:59;;;;;;;42.73;25.33;;;9.90;99.90;;;;;;5025308;28;20824;-74
2024/03/04 10:59:50;;;;;;;49.77;26.57;;;9.80;99.90;;;;;;5023042;28;20826;-72
2024/03/04 11:02:43;;;;;;;44.63;25.93;;;9.90;99.90;;;;;;5024361;28;20966;-70
2024/03/04 11:05:31;;;;;;;106.10;53.00;;;9.90;99.90;;;;;;5023087;28;20468;-73
2024/03/04 11:08:27;;;;;;;129.27;60.13;;;9.90;99.90;;;;;;5025427;28;20585;-73
2024/03/04 11:11:14;;;;;;;54.40;29.13;;;9.90;99.90;;;;;;5024664;28;20546;-72
2024/03/04 11:14:04;;;;;;;52.10;28.70;;;9.90;99.90;;;;;;5021478;28;20455;-71
2024/03/04 11:17:01;;;;;;;58.40;31.90;;;9.80;99.90;;;;;;5020416;28;20460;-73
2024/03/04 11:19:52;;;;;;;69.43;38.90;;;9.80;99.90;;;;;;5023074;28;20515;-70
2024/03/04 11:22:39;;;;;;;59.23;32.13;;;9.80;99.90;;;;;;5024147;28;20472;-73
2024/03/04 11:25:25;;;;;;;57.80;33.83;;;9.80;99.90;;;;;;5024671;28;20429;-74
2024/03/04 11:28:18;;;;;;;61.73;35.20;;;9.80;99.90;;;;;;5024373;28;20540;-74
2024/03/04 11:31:09;;;;;;;99.30;49.47;;;9.70;99.90;;;;;;5019169;28;20473;-74
2024/03/04 11:34:05;;;;;;;83.10;41.97;;;9.80;99.90;;;;;;5022160;28;20464;-75
2024/03/04 11:36:51;;;;;;;76.10;43.97;;;9.80;99.90;;;;;;5021373;28;20463;-71
2024/03/04 11:39:37;;;;;;;64.47;38.30;;;9.90;99.90;;;;;;5023882;28;20441;-71
2024/03/04 11:42:34;;;;;;;56.30;33.77;;;9.90;99.90;;;;;;5023471;28;20478;-71
2024/03/04 11:45:21;;;;;;;74.73;43.57;;;9.90;99.90;;;;;;5024083;28;20464;-72
2024/03/04 11:48:28;;;;;;;61.30;37.67;;;10.00;99.90;;;;;;5029112;28;20521;-74
2024/03/04 11:51:36;;;;;;;41.50;27.50;;;10.00;99.90;;;;;;5023581;28;20444;-74
2024/03/04 11:54:27;;;;;;;43.00;25.07;;;10.10;99.90;;;;;;5022378;28;20496;-73
2024/03/04 11:57:14;;;;;;;52.67;30.13;;;10.10;99.90;;;;;;5025273;28;20878;-74
2024/03/04 12:00:01;;;;;;;46.10;27.03;;;10.10;99.90;;;;;;5024265;28;20468;-73
2024/03/04 12:03:00;;;;;;;50.87;23.80;;;10.20;99.90;;;;;;5023323;28;20483;-71
2024/03/04 12:05:47;;;;;;;42.13;22.77;;;10.20;99.90;;;;;;5021814;28;20519;-74
2024/03/04 12:08:34;;;;;;;37.77;22.03;;;10.20;99.90;;;;;;5020991;28;21045;-71
2024/03/04 12:11:22;;;;;;;41.93;23.73;;;10.30;99.90;;;;;;5019723;28;20818;-75
2024/03/04 12:14:08;;;;;;;36.43;22.53;;;10.30;99.90;;;;;;5020722;28;20444;-73
2024/03/04 12:16:53;;;;;;;40.17;23.13;;;10.30;99.90;;;;;;5021770;28;20443;-74
2024/03/04 12:19:39;;;;;;;39.20;22.67;;;10.20;99.90;;;;;;5023080;28;20469;-71
2024/03/04 12:22:26;;;;;;;38.50;22.60;;;10.20;99.90;;;;;;5022661;28;21259;-73
2024/03/04 12:25:14;;;;;;;32.80;20.77;;;10.20;99.90;;;;;;5022251;28;20424;-74
2024/03/04 12:28:00;;;;;;;41.03;24.03;;;10.20;99.90;;;;;;5017620;28;20486;-74
2024/03/04 12:30:45;;;;;;;41.13;23.27;;;10.10;99.90;;;;;;5013207;28;20448;-75
2024/03/04 12:33:31;;;;;;;40.60;22.30;;;10.10;99.90;;;;;;5013858;28;20459;-71
2024/03/04 12:36:18;;;;;;;39.80;22.87;;;10.10;99.90;;;;;;5022274;28;20455;-74
2024/03/04 12:39:04;;;;;;;38.53;22.33;;;10.20;99.90;;;;;;5005053;28;20456;-75
2024/03/04 12:41:51;;;;;;;40.73;22.60;;;10.20;99.90;;;;;;5010517;28;20511;-73
2024/03/04 12:44:37;;;;;;;39.17;22.53;;;10.20;99.90;;;;;;5024504;28;21038;-75
2024/03/04 12:47:26;;;;;;;36.73;22.37;;;10.30;99.90;;;;;;5022839;28;20458;-72
2024/03/04 12:50:11;;;;;;;41.00;24.23;;;10.30;99.90;;;;;;5024112;28;20489;-73
2024/03/04 12:52:59;;;;;;;37.40;21.73;;;10.20;99.90;;;;;;5024996;28;20525;-73
2024/03/04 12:55:47;;;;;;;42.07;22.67;;;10.20;99.90;;;;;;5019782;28;20655;-75
2024/03/04 12:58:34;;;;;;;36.60;21.30;;;10.20;99.90;;;;;;5008491;28;20497;-74
2024/03/04 13:01:21;;;;;;;39.53;22.13;;;10.20;99.90;;;;;;5016816;28;20436;-74
2024/03/04 13:04:07;;;;;;;41.90;22.90;;;10.30;99.90;;;;;;5018713;28;20796;-73
2024/03/04 13:06:53;;;;;;;38.37;21.47;;;10.30;99.90;;;;;;5017146;28;20491;-74
2024/03/04 13:09:38;;;;;;;31.50;21.03;;;10.30;99.90;;;;;;5017305;28;20484;-71
2024/03/04 13:12:24;;;;;;;43.40;23.03;;;10.30;99.90;;;;;;5016873;28;20507;-73
2024/03/04 13:15:12;;;;;;;36.53;21.80;;;10.20;99.90;;;;;;5012648;28;20452;-72
2024/03/04 13:17:58;;;;;;;41.10;23.50;;;10.20;99.90;;;;;;5016510;28;20457;-75
2024/03/04 13:20:44;;;;;;;38.47;22.23;;;10.20;99.90;;;;;;5015758;28;20473;-73
2024/03/04 13:23:29;;;;;;;40.20;22.70;;;10.10;99.90;;;;;;5018957;28;20436;-74
2024/03/04 13:26:15;;;;;;;37.63;23.00;;;10.10;99.90;;;;;;5016593;28;20436;-75
2024/03/04 13:29:00;;;;;;;38.13;22.00;;;10.10;99.90;;;;;;5018532;28;20873;-72
2024/03/04 13:31:48;;;;;;;41.83;23.10;;;10.10;99.90;;;;;;5015958;28;20508;-71
2024/03/04 13:34:34;;;;;;;41.63;22.80;;;10.20;99.90;;;;;;5015789;28;20523;-74
2024/03/04 13:37:19;;;;;;;42.10;22.63;;;10.10;99.90;;;;;;5013854;28;20643;-74
2024/03/04 13:40:06;;;;;;;35.87;22.23;;;10.20;99.90;;;;;;5004714;28;20452;-73
2024/03/04 13:42:52;;;;;;;47.40;24.43;;;10.20;99.90;;;;;;5004507;28;20496;-73
2024/03/04 13:45:38;;;;;;;39.50;22.00;;;10.30;99.90;;;;;;5004684;28;20523;-73
2024/03/04 13:48:25;;;;;;;43.93;22.70;;;10.30;99.90;;;;;;5007053;28;20526;-70
2024/03/04 13:51:10;;;;;;;44.03;23.10;;;10.30;99.90;;;;;;5006319;28;20451;-71
2024/03/04 13:53:58;;;;;;;45.87;23.37;;;10.20;99.90;;;;;;5003524;28;20818;-74
2024/03/04 13:56:44;;;;;;;49.90;25.00;;;10.20;99.90;;;;;;5006318;28;20441;-71
2024/03/04 13:59:29;;;;;;;39.90;22.87;;;10.10;99.90;;;;;;5009548;28;20428;-74
2024/03/04 14:02:15;;;;;;;39.37;22.30;;;10.10;99.90;;;;;;5007050;28;20452;-72
2024/03/04 14:05:02;;;;;;;45.20;25.60;;;10.10;99.90;;;;;;5006682;28;20444;-74
2024/03/04 14:07:48;;;;;;;44.20;23.83;;;10.10;99.90;;;;;;5004337;28;20434;-73
2024/03/04 14:10:34;;;;;;;38.87;23.43;;;10.10;99.90;;;;;;5007318;28;20578;-74
2024/03/04 14:13:20;;;;;;;51.07;25.73;;;10.10;99.90;;;;;;5005817;28;20583;-72
2024/03/04 14:16:08;;;;;;;37.70;21.50;;;10.00;99.90;;;;;;5006949;28;20432;-72